Barhom II — 5IM534 — position and weather

sailwx.info

Track history (hours):
 
Tides and Currents Weather Stations Pressure Air Temp Water Temp Dewpoint Dewpoint Depression Visibility Wind Speed Wind Dir Waves Ship Positions

Barhom II

Last reported at 2015-Aug-22 02:24 UTC. Time now 2015-Sep-02 08:39 UTC.
Position N 38°21' E 023°49'.
Warning: this ship's position is 11 days out of date.

Length 83 m; draft 4.3 m.

Type: Cargo ship. MMSI: 677043400.

Date/timePositionNaut miles runAvg speedWind from/ knotsBaromVisibWave heightAir tempDewpointWater temp
2015-Aug-22 02:24N 38°21' E 023°49'17 9.0
2015-Aug-22 00:33N 38°12' E 024°06'9 8.8
2015-Aug-21 23:33N 38°04' E 024°11'9 9.1
2015-Aug-21 22:33N 37°55' E 024°12'9 8.5
2015-Aug-21 21:31N 37°46' E 024°12'11 8.4
2015-Aug-21 20:16N 37°36' E 024°11'110 6.6
2015-Aug-21 03:33N 36°01' E 025°21'108 6.6
2015-Aug-20 11:06N 34°54' E 027°05'4 6.9
2015-Aug-20 10:31N 34°51' E 027°09'7 6.6
2015-Aug-20 09:29N 34°47' E 027°15'6 6.4
2015-Aug-20 08:31N 34°43' E 027°21'12 6.0
2015-Aug-20 06:33N 34°36' E 027°33'165 6.6
2015-Aug-19 05:33N 32°53' E 030°08'48 7.9
2015-Aug-18 23:30N 32°21' E 030°51'10 7.7
2015-Aug-18 22:12N 32°14' E 030°60'20 7.7
2015-Aug-18 19:33N 32°00' E 031°17'19 8.3
2015-Aug-18 17:12N 31°44' E 031°29'6 8.3
2015-Aug-18 16:31N 31°41' E 031°35'  
2015-Aug-13 14:33N 35°40' E 014°28'10 9.7
2015-Aug-13 13:33N 35°41' E 014°16'10 9.8
2015-Aug-13 12:33N 35°44' E 014°05'  
Track history (hours):
 
Tides and Currents Weather Stations Pressure Air Temp Water Temp Dewpoint Dewpoint Depression Visibility Wind Speed Wind Dir Waves Ship Positions

Barhom II

Last reported at 2015-Aug-22 02:24 UTC. Time now 2015-Sep-02 08:39 UTC.
Position N 38°21' E 023°49'.
Warning: this ship's position is 11 days out of date.

Length 83 m; draft 4.3 m.

Type: Cargo ship. MMSI: 677043400.

Date/timePositionNaut miles runAvg speedWind from/ knotsBaromVisibWave heightAir tempDewpointWater temp
2015-Aug-22 02:24N 38°21' E 023°49'17 9.0
2015-Aug-22 00:33N 38°12' E 024°06'9 8.8
2015-Aug-21 23:33N 38°04' E 024°11'9 9.1
2015-Aug-21 22:33N 37°55' E 024°12'9 8.5
2015-Aug-21 21:31N 37°46' E 024°12'11 8.4
2015-Aug-21 20:16N 37°36' E 024°11'110 6.6
2015-Aug-21 03:33N 36°01' E 025°21'108 6.6
2015-Aug-20 11:06N 34°54' E 027°05'4 6.9
2015-Aug-20 10:31N 34°51' E 027°09'7 6.6
2015-Aug-20 09:29N 34°47' E 027°15'6 6.4
2015-Aug-20 08:31N 34°43' E 027°21'12 6.0
2015-Aug-20 06:33N 34°36' E 027°33'165 6.6
2015-Aug-19 05:33N 32°53' E 030°08'48 7.9
2015-Aug-18 23:30N 32°21' E 030°51'10 7.7
2015-Aug-18 22:12N 32°14' E 030°60'20 7.7
2015-Aug-18 19:33N 32°00' E 031°17'19 8.3
2015-Aug-18 17:12N 31°44' E 031°29'6 8.3
2015-Aug-18 16:31N 31°41' E 031°35'  
2015-Aug-13 14:33N 35°40' E 014°28'10 9.7
2015-Aug-13 13:33N 35°41' E 014°16'10 9.8
2015-Aug-13 12:33N 35°44' E 014°05'  

Dump ship's entire track history